createdAt,value
2018-05-13T00:01:27.853Z,80.44
2018-05-13T00:03:53.779Z,80.74
2018-05-13T00:06:19.685Z,81.07
2018-05-13T00:08:45.609Z,81.42
2018-05-13T00:11:11.560Z,81.41
2018-05-13T00:13:37.485Z,81.14
2018-05-13T00:16:03.426Z,81.60
2018-05-13T00:18:29.362Z,81.93
2018-05-13T00:20:55.308Z,82.04
2018-05-13T00:23:21.209Z,82.36
2018-05-13T00:25:47.173Z,82.14
2018-05-13T00:28:13.082Z,82.44
2018-05-13T00:30:39.002Z,82.58
2018-05-13T00:33:04.937Z,82.92
2018-05-13T00:35:30.859Z,82.76
2018-05-13T00:37:56.801Z,82.84
2018-05-13T00:40:22.737Z,82.82
2018-05-13T00:42:48.712Z,83.50
2018-05-13T00:45:14.677Z,83.36
2018-05-13T00:47:40.615Z,83.45
2018-05-13T00:50:06.501Z,83.66
2018-05-13T00:52:32.455Z,83.63
2018-05-13T00:54:58.381Z,84.26
2018-05-13T00:57:24.316Z,84.36
2018-05-13T00:59:50.273Z,84.61
2018-05-13T01:02:16.227Z,84.98
2018-05-13T01:04:42.147Z,84.84
2018-05-13T01:07:08.046Z,85.23
2018-05-13T01:09:33.979Z,85.46
2018-05-13T01:11:59.889Z,85.29
2018-05-13T01:14:25.840Z,85.40
2018-05-13T01:16:51.759Z,85.88
2018-05-13T01:19:17.663Z,85.98
2018-05-13T01:21:43.583Z,86.54
2018-05-13T01:24:09.515Z,86.47
2018-05-13T01:26:35.485Z,86.39
2018-05-13T01:29:01.418Z,86.51
2018-05-13T01:31:27.349Z,86.74
2018-05-13T01:33:53.308Z,86.67
2018-05-13T01:36:19.258Z,86.72
2018-05-13T01:38:45.198Z,86.98
2018-05-13T01:41:11.128Z,87.25
2018-05-13T01:43:37.064Z,87.01
2018-05-13T01:46:02.996Z,87.29
2018-05-13T01:48:28.942Z,87.71
2018-05-13T01:50:54.844Z,87.95
2018-05-13T01:53:20.767Z,87.90
2018-05-13T01:55:46.670Z,88.06
2018-05-13T01:58:12.594Z,87.87
2018-05-13T02:00:38.559Z,88.35
2018-05-13T02:03:04.491Z,87.94
2018-05-13T02:05:30.410Z,88.09
2018-05-13T02:07:56.328Z,88.12
2018-05-13T02:10:22.245Z,88.61
2018-05-13T02:12:48.189Z,88.52
2018-05-13T02:15:14.139Z,88.25
2018-05-13T02:17:40.045Z,88.69
2018-05-13T02:20:05.969Z,88.72
2018-05-13T02:22:31.905Z,88.54
2018-05-13T02:24:57.841Z,88.56
2018-05-13T02:27:23.773Z,88.93
2018-05-13T02:29:49.695Z,89.17
2018-05-13T02:32:15.600Z,89.39
2018-05-13T02:34:41.543Z,89.34
2018-05-13T02:37:07.472Z,89.59
2018-05-13T02:39:33.435Z,90.08
2018-05-13T02:41:59.345Z,90.26
2018-05-13T02:44:25.278Z,90.47
2018-05-13T02:46:51.204Z,90.86
2018-05-13T02:49:17.100Z,90.95
2018-05-13T02:51:43.032Z,90.97
2018-05-13T02:54:08.968Z,90.91
2018-05-13T02:56:34.890Z,90.66
2018-05-13T02:59:00.812Z,90.60
2018-05-13T03:01:26.717Z,90.31
2018-05-13T03:03:52.632Z,90.43
2018-05-13T03:06:18.573Z,90.92
2018-05-13T03:08:44.506Z,90.73
2018-05-13T03:11:10.432Z,90.84
2018-05-13T03:13:36.361Z,91.11
2018-05-13T03:16:02.306Z,91.01
2018-05-13T03:18:28.229Z,90.97
2018-05-13T03:20:54.120Z,91.13
2018-05-13T03:23:20.069Z,90.78
2018-05-13T03:25:45.982Z,91.76
2018-05-13T03:28:11.927Z,91.97
2018-05-13T03:30:37.841Z,92.24
2018-05-13T03:33:03.751Z,92.24
2018-05-13T03:35:29.683Z,92.48
2018-05-13T03:37:55.608Z,92.63
2018-05-13T03:40:21.525Z,92.75
2018-05-13T03:42:47.431Z,92.81
2018-05-13T03:45:13.371Z,92.59
2018-05-13T03:47:39.291Z,92.74
2018-05-13T03:50:05.213Z,92.48
2018-05-13T03:52:31.118Z,92.33
2018-05-13T03:54:57.048Z,92.27
2018-05-13T03:57:22.952Z,92.24
2018-05-13T03:59:48.902Z,92.10
2018-05-13T04:02:14.810Z,92.04
2018-05-13T04:04:40.731Z,91.84
2018-05-13T04:07:06.644Z,92.23
2018-05-13T04:09:45.669Z,92.59
2018-05-13T04:12:23.870Z,92.40
2018-05-13T04:15:02.008Z,92.81
2018-05-13T04:17:27.952Z,92.80
2018-05-13T04:19:53.876Z,92.63
2018-05-13T04:22:19.801Z,92.48
2018-05-13T04:24:45.712Z,92.79
2018-05-13T04:27:11.656Z,92.75
2018-05-13T04:29:37.570Z,92.79
2018-05-13T04:32:03.492Z,92.86
2018-05-13T04:34:29.424Z,92.61
2018-05-13T04:36:55.348Z,92.54
2018-05-13T04:39:21.274Z,92.29
2018-05-13T04:41:47.206Z,92.11
2018-05-13T04:44:13.155Z,91.97
2018-05-13T04:46:39.055Z,91.84
2018-05-13T04:49:04.988Z,91.76
2018-05-13T04:51:30.889Z,91.81
2018-05-13T04:53:56.829Z,91.61
2018-05-13T04:56:22.770Z,91.44
2018-05-13T04:58:48.673Z,91.36
2018-05-13T05:01:14.598Z,91.21
2018-05-13T05:03:40.528Z,91.05
2018-05-13T05:06:06.449Z,90.98
2018-05-13T05:08:32.369Z,91.09
2018-05-13T05:10:58.281Z,91.26
2018-05-13T05:13:24.209Z,90.97
2018-05-13T05:15:50.182Z,90.83
2018-05-13T05:18:16.094Z,90.86
2018-05-13T05:20:42.032Z,90.66
2018-05-13T05:23:07.974Z,90.89
2018-05-13T05:25:33.890Z,90.64
2018-05-13T05:27:59.916Z,90.49
2018-05-13T05:30:25.843Z,90.28
2018-05-13T05:32:51.767Z,90.23
2018-05-13T05:35:17.699Z,90.13
2018-05-13T05:37:43.613Z,89.91
2018-05-13T05:40:09.548Z,89.86
2018-05-13T05:42:35.468Z,89.57
2018-05-13T05:45:01.394Z,89.38
2018-05-13T05:47:27.299Z,89.49
2018-05-13T05:49:53.205Z,89.04
2018-05-13T05:52:19.119Z,88.91
2018-05-13T05:54:45.020Z,88.92
2018-05-13T05:57:10.931Z,88.79
2018-05-13T05:59:36.905Z,88.87
2018-05-13T06:02:02.882Z,89.03
2018-05-13T06:04:28.817Z,88.66
2018-05-13T06:06:54.754Z,88.55
2018-05-13T06:09:20.704Z,88.49
2018-05-13T06:11:46.630Z,88.60
2018-05-13T06:14:12.565Z,88.36
2018-05-13T06:16:38.480Z,88.22
2018-05-13T06:19:04.412Z,88.36
2018-05-13T06:21:31.144Z,88.17
2018-05-13T06:23:57.081Z,88.31
2018-05-13T06:26:23.012Z,88.11
2018-05-13T06:28:48.930Z,88.12
2018-05-13T06:31:14.938Z,87.68
2018-05-13T06:33:40.857Z,87.69
2018-05-13T06:36:06.848Z,87.69
2018-05-13T06:38:32.766Z,87.29
2018-05-13T06:40:58.701Z,87.00
2018-05-13T06:43:24.617Z,87.12
2018-05-13T06:45:50.536Z,86.80
2018-05-13T06:48:16.465Z,87.02
2018-05-13T06:50:42.395Z,86.50
2018-05-13T06:53:08.331Z,86.38
2018-05-13T06:55:34.241Z,85.92
2018-05-13T06:58:00.179Z,85.46
2018-05-13T07:00:26.111Z,85.18
2018-05-13T07:02:52.062Z,84.89
2018-05-13T07:05:17.984Z,84.85
2018-05-13T07:07:43.900Z,84.20
2018-05-13T07:10:09.832Z,84.12
2018-05-13T07:12:35.762Z,84.45
2018-05-13T07:15:01.700Z,84.23
2018-05-13T07:17:27.670Z,84.17
2018-05-13T07:19:53.605Z,84.28
2018-05-13T07:22:19.520Z,84.78
2018-05-13T07:24:45.438Z,84.66
2018-05-13T07:27:11.380Z,83.64
2018-05-13T07:29:37.333Z,82.96
2018-05-13T07:32:03.287Z,82.64
2018-05-13T07:34:29.210Z,82.25
2018-05-13T07:36:55.151Z,81.94
2018-05-13T07:39:21.176Z,81.73
2018-05-13T07:41:47.076Z,81.64
2018-05-13T07:44:13.010Z,81.86
2018-05-13T07:46:38.942Z,81.25
2018-05-13T07:49:04.857Z,81.64
2018-05-13T07:51:30.793Z,81.35
2018-05-13T07:53:56.725Z,82.00
2018-05-13T07:56:22.652Z,80.88
2018-05-13T07:58:48.579Z,80.81
2018-05-13T08:01:14.513Z,80.54
2018-05-13T08:03:40.410Z,79.99
2018-05-13T08:06:06.367Z,79.51
2018-05-13T08:08:32.275Z,80.30
2018-05-13T08:10:58.206Z,79.70
2018-05-13T08:13:24.144Z,80.27
2018-05-13T08:15:50.075Z,79.63
2018-05-13T08:18:16.024Z,79.14
2018-05-13T08:20:41.965Z,78.11
2018-05-13T08:23:07.911Z,78.66
2018-05-13T08:25:33.841Z,77.71
2018-05-13T08:27:59.765Z,76.86
2018-05-13T08:30:25.691Z,76.50
2018-05-13T08:32:51.653Z,77.32
2018-05-13T08:35:17.576Z,76.74
2018-05-13T08:37:43.501Z,75.16
2018-05-13T08:40:09.453Z,75.45
2018-05-13T08:42:35.408Z,76.47
2018-05-13T08:45:01.340Z,74.46
2018-05-13T08:47:27.256Z,73.70
2018-05-13T08:49:53.200Z,72.95
2018-05-13T08:52:19.188Z,72.34
2018-05-13T08:54:45.063Z,71.71
2018-05-13T08:57:10.981Z,71.61
2018-05-13T08:59:36.935Z,72.69
2018-05-13T09:02:02.859Z,72.17
2018-05-13T09:04:28.794Z,70.66
2018-05-13T09:06:54.718Z,71.59
2018-05-13T09:09:20.675Z,70.98
2018-05-13T09:11:46.588Z,70.70
2018-05-13T09:14:12.619Z,69.32
2018-05-13T09:16:38.517Z,69.15
2018-05-13T09:19:04.427Z,69.72
2018-05-13T09:21:30.342Z,70.02
2018-05-13T09:23:56.256Z,69.46
2018-05-13T09:26:22.363Z,68.94
2018-05-13T09:28:48.266Z,68.52
2018-05-13T09:31:14.177Z,68.10
2018-05-13T09:33:40.119Z,67.08
2018-05-13T09:36:06.043Z,66.30
2018-05-13T09:38:31.998Z,66.54
2018-05-13T09:40:57.901Z,67.32
2018-05-13T09:43:23.845Z,67.56
2018-05-13T09:45:49.781Z,65.56
2018-05-13T09:48:15.739Z,66.44
2018-05-13T09:50:41.672Z,64.46
2018-05-13T09:53:07.609Z,64.81
2018-05-13T09:55:33.554Z,64.58
2018-05-13T09:57:59.527Z,64.52
2018-05-13T10:00:25.460Z,64.85
2018-05-13T10:02:51.376Z,63.81
2018-05-13T10:05:17.296Z,63.88
2018-05-13T10:07:43.238Z,63.94
2018-05-13T10:10:09.164Z,63.56
2018-05-13T10:12:35.067Z,62.23
2018-05-13T10:15:01.020Z,61.76
2018-05-13T10:17:26.945Z,61.18
2018-05-13T10:19:52.885Z,60.22
2018-05-13T10:22:18.813Z,61.04
2018-05-13T10:24:44.745Z,60.77
2018-05-13T10:27:10.844Z,60.94
2018-05-13T10:29:36.788Z,60.76
2018-05-13T10:32:02.728Z,59.77
2018-05-13T10:34:28.692Z,59.82
2018-05-13T10:36:54.645Z,59.00
2018-05-13T10:39:20.554Z,58.56
2018-05-13T10:41:46.550Z,56.55
2018-05-13T10:44:12.501Z,55.70
2018-05-13T10:46:38.420Z,55.77
2018-05-13T10:49:04.338Z,55.78
2018-05-13T10:51:30.258Z,55.17
2018-05-13T10:53:56.171Z,53.24
2018-05-13T10:56:22.099Z,51.55
2018-05-13T10:58:48.017Z,51.96
2018-05-13T11:01:13.966Z,51.62
2018-05-13T11:03:39.901Z,51.56
2018-05-13T11:06:05.846Z,49.98
2018-05-13T11:08:31.800Z,49.42
2018-05-13T11:10:57.721Z,49.47
2018-05-13T11:13:23.677Z,49.01
2018-05-13T11:15:49.613Z,47.12
2018-05-13T11:18:15.536Z,46.90
2018-05-13T11:20:41.577Z,45.51
2018-05-13T11:23:07.482Z,45.67
2018-05-13T11:25:33.413Z,44.77
2018-05-13T11:27:59.351Z,42.70
2018-05-13T11:30:25.284Z,42.73
2018-05-13T11:32:51.213Z,40.46
2018-05-13T11:35:17.156Z,40.93
2018-05-13T11:37:43.130Z,39.03
2018-05-13T11:40:09.074Z,39.34
2018-05-13T11:42:35.010Z,38.61
2018-05-13T11:45:00.985Z,38.03
2018-05-13T11:47:26.908Z,37.64
2018-05-13T11:49:52.846Z,37.77
2018-05-13T11:52:18.873Z,38.76
2018-05-13T11:54:44.796Z,37.04
2018-05-13T11:57:11.714Z,37.86
2018-05-13T11:59:37.639Z,36.54
2018-05-13T12:02:03.620Z,36.09
2018-05-13T12:04:29.573Z,36.29
2018-05-13T12:06:55.492Z,36.49
2018-05-13T12:09:21.463Z,36.41
2018-05-13T12:11:47.435Z,35.58
2018-05-13T12:14:13.403Z,35.12
2018-05-13T12:16:39.325Z,35.21
2018-05-13T12:19:05.467Z,36.15
2018-05-13T12:21:31.376Z,35.63
2018-05-13T12:23:57.331Z,34.94
2018-05-13T12:26:23.280Z,34.13
2018-05-13T12:28:49.243Z,35.68
2018-05-13T12:31:15.217Z,35.86
2018-05-13T12:33:41.137Z,35.15
2018-05-13T12:36:07.119Z,34.16
2018-05-13T12:38:33.097Z,33.58
2018-05-13T12:40:59.037Z,33.65
2018-05-13T12:43:24.969Z,33.75
2018-05-13T12:45:50.923Z,32.82
2018-05-13T12:48:16.857Z,32.68
2018-05-13T12:50:42.776Z,32.80
2018-05-13T12:53:08.718Z,32.19
2018-05-13T12:55:34.659Z,32.48
2018-05-13T12:58:00.647Z,32.05
2018-05-13T13:00:26.564Z,32.13
2018-05-13T13:02:52.538Z,32.25
2018-05-13T13:05:18.479Z,32.16
2018-05-13T13:07:44.547Z,32.88
2018-05-13T13:10:10.386Z,33.50
2018-05-13T13:12:36.305Z,33.18
2018-05-13T13:15:02.283Z,32.71
2018-05-13T13:17:28.205Z,32.61
2018-05-13T13:19:54.133Z,33.06
2018-05-13T13:22:20.093Z,32.21
2018-05-13T13:24:46.050Z,32.66
2018-05-13T13:27:11.997Z,32.84
2018-05-13T13:29:37.928Z,32.77
2018-05-13T13:32:03.855Z,33.14
2018-05-13T13:34:29.833Z,33.67
2018-05-13T13:36:55.798Z,32.58
2018-05-13T13:39:21.731Z,32.73
2018-05-13T13:41:47.676Z,31.65
2018-05-13T13:44:13.617Z,33.19
2018-05-13T13:46:39.579Z,34.25
2018-05-13T13:49:05.514Z,34.23
2018-05-13T13:51:31.458Z,33.21
2018-05-13T13:53:57.465Z,32.36
2018-05-13T13:56:23.438Z,32.47
2018-05-13T13:58:49.385Z,32.73
2018-05-13T14:01:15.341Z,32.30
2018-05-13T14:03:41.261Z,32.15
2018-05-13T14:06:07.180Z,31.90
2018-05-13T14:08:33.139Z,31.46
2018-05-13T14:10:59.073Z,32.12
2018-05-13T14:13:25.008Z,32.96
2018-05-13T14:15:50.911Z,32.47
2018-05-13T14:18:16.881Z,32.04
2018-05-13T14:20:42.937Z,32.81
2018-05-13T14:23:08.844Z,33.61
2018-05-13T14:25:34.813Z,34.60
2018-05-13T14:28:00.758Z,34.01
2018-05-13T14:30:26.730Z,33.29
2018-05-13T14:32:52.642Z,34.65
2018-05-13T14:35:18.629Z,35.18
2018-05-13T14:37:44.555Z,37.25
2018-05-13T14:40:10.492Z,37.20
2018-05-13T14:42:36.449Z,35.76
2018-05-13T14:45:02.448Z,35.53
2018-05-13T14:47:28.389Z,37.24
2018-05-13T14:49:54.339Z,36.87
2018-05-13T14:52:20.237Z,37.05
2018-05-13T14:54:46.184Z,36.58
2018-05-13T14:57:12.090Z,36.64
2018-05-13T14:59:38.017Z,36.51
2018-05-13T15:02:03.956Z,37.04
2018-05-13T15:04:29.887Z,35.22
2018-05-13T15:06:55.834Z,35.30
2018-05-13T15:09:22.153Z,34.79
2018-05-13T15:11:47.746Z,36.35
2018-05-13T15:14:13.714Z,35.91
2018-05-13T15:16:39.703Z,35.46
2018-05-13T15:19:05.624Z,34.97
2018-05-13T15:21:31.575Z,35.97
2018-05-13T15:23:57.526Z,34.88
2018-05-13T15:26:23.487Z,34.47
2018-05-13T15:28:49.509Z,34.89
2018-05-13T15:31:15.413Z,34.19
2018-05-13T15:33:41.358Z,33.17
2018-05-13T15:36:07.292Z,33.52
2018-05-13T15:38:33.227Z,32.40
2018-05-13T15:40:59.210Z,32.21
2018-05-13T15:43:26.922Z,32.03
2018-05-13T15:45:52.784Z,31.51
2018-05-13T15:48:18.725Z,30.50
2018-05-13T15:50:44.691Z,30.12
2018-05-13T15:53:10.627Z,30.25
2018-05-13T15:55:36.584Z,31.82
2018-05-13T15:58:02.558Z,30.18
2018-05-13T16:00:28.620Z,29.38
2018-05-13T16:02:54.568Z,29.42
2018-05-13T16:05:20.485Z,29.26
2018-05-13T16:07:46.391Z,28.73
2018-05-13T16:10:12.316Z,28.52
2018-05-13T16:12:38.308Z,29.06
2018-05-13T16:15:04.233Z,32.41
2018-05-13T16:17:30.159Z,31.24
2018-05-13T16:19:56.073Z,32.25
2018-05-13T16:22:22.020Z,32.14
2018-05-13T16:24:47.969Z,30.58
2018-05-13T16:27:13.953Z,30.80
2018-05-13T16:29:39.948Z,29.38
2018-05-13T16:32:05.889Z,29.13
2018-05-13T16:34:31.837Z,29.45
2018-05-13T16:36:57.776Z,30.20
2018-05-13T16:39:23.740Z,31.35
2018-05-13T16:41:49.683Z,32.55
2018-05-13T16:44:15.638Z,35.72
2018-05-13T16:46:41.585Z,35.70
2018-05-13T16:49:07.521Z,34.63
2018-05-13T16:51:33.473Z,35.27
2018-05-13T16:53:59.418Z,36.10
2018-05-13T16:56:25.370Z,36.16
2018-05-13T16:58:51.442Z,36.16
2018-05-13T17:01:17.419Z,35.63
2018-05-13T17:03:43.348Z,36.01
2018-05-13T17:06:09.323Z,36.04
2018-05-13T17:08:35.243Z,34.91
2018-05-13T17:11:01.193Z,35.02
2018-05-13T17:13:27.109Z,34.66
2018-05-13T17:15:53.073Z,34.53
2018-05-13T17:18:19.017Z,34.99
2018-05-13T17:20:44.997Z,35.11
2018-05-13T17:23:11.099Z,35.63
2018-05-13T17:25:37.046Z,34.57
2018-05-13T17:28:03.006Z,34.87
2018-05-13T17:30:28.951Z,34.26
2018-05-13T17:32:54.919Z,34.80
2018-05-13T17:35:20.950Z,35.01
2018-05-13T17:37:46.957Z,35.24
2018-05-13T17:40:12.938Z,35.10
2018-05-13T17:42:38.931Z,35.25
2018-05-13T17:45:04.903Z,35.87
2018-05-13T17:47:31.811Z,35.79
2018-05-13T17:49:57.803Z,36.22
2018-05-13T17:52:23.763Z,36.10
2018-05-13T17:54:49.746Z,36.82
2018-05-13T17:57:15.762Z,36.03
2018-05-13T17:59:41.669Z,36.79
2018-05-13T18:02:07.995Z,37.08
2018-05-13T18:04:33.933Z,36.58
2018-05-13T18:06:59.934Z,36.48
2018-05-13T18:09:25.934Z,36.60
2018-05-13T18:11:51.915Z,36.86
2018-05-13T18:14:17.979Z,37.21
2018-05-13T18:16:43.945Z,37.31
2018-05-13T18:19:09.933Z,37.33
2018-05-13T18:21:35.923Z,38.08
2018-05-13T18:24:01.841Z,38.04
2018-05-13T18:26:27.863Z,38.30
2018-05-13T18:28:53.803Z,38.55
2018-05-13T18:31:19.839Z,38.24
2018-05-13T18:33:45.851Z,38.58
2018-05-13T18:36:12.819Z,38.57
2018-05-13T18:38:39.717Z,39.72
2018-05-13T18:41:05.733Z,40.53
2018-05-13T18:43:31.672Z,39.83
2018-05-13T18:45:57.667Z,39.52
2018-05-13T18:48:23.748Z,40.46
2018-05-13T18:50:49.722Z,40.05
2018-05-13T18:53:16.022Z,40.00
2018-05-13T18:55:42.098Z,40.87
2018-05-13T18:58:08.164Z,40.17
2018-05-13T19:00:34.346Z,42.29
2018-05-13T19:03:00.301Z,41.79
2018-05-13T19:05:26.259Z,43.49
2018-05-13T19:07:52.365Z,42.77
2018-05-13T19:10:18.353Z,43.32
2018-05-13T19:12:44.311Z,43.41
2018-05-13T19:15:10.264Z,44.74
2018-05-13T19:17:36.252Z,44.91
2018-05-13T19:20:02.197Z,45.04
2018-05-13T19:22:28.202Z,44.70
2018-05-13T19:24:54.280Z,45.20
2018-05-13T19:27:20.227Z,45.08
2018-05-13T19:29:46.242Z,45.60
2018-05-13T19:32:12.223Z,46.71
2018-05-13T19:34:38.256Z,45.46
2018-05-13T19:37:04.300Z,46.19
2018-05-13T19:39:31.277Z,47.20
2018-05-13T19:41:57.261Z,47.65
2018-05-13T19:44:23.269Z,47.95
2018-05-13T19:46:49.323Z,48.73
2018-05-13T19:49:15.272Z,48.81
2018-05-13T19:51:41.235Z,48.77
2018-05-13T19:54:08.025Z,49.87
2018-05-13T19:56:33.974Z,50.13
2018-05-13T19:58:59.918Z,50.00
2018-05-13T20:01:25.821Z,51.19
2018-05-13T20:03:52.022Z,50.87
2018-05-13T20:06:17.993Z,50.08
2018-05-13T20:08:43.995Z,50.49
2018-05-13T20:11:09.977Z,50.90
2018-05-13T20:13:36.012Z,50.17
2018-05-13T20:16:01.939Z,49.98
2018-05-13T20:18:27.895Z,50.31
2018-05-13T20:20:53.844Z,50.76
2018-05-13T20:23:23.938Z,50.51
2018-05-13T20:25:49.907Z,49.72
2018-05-13T20:28:15.824Z,51.03
2018-05-13T20:30:41.796Z,50.73
2018-05-13T20:33:07.784Z,50.49
2018-05-13T20:35:33.799Z,49.88
2018-05-13T20:37:59.782Z,50.53
2018-05-13T20:40:26.710Z,51.29
2018-05-13T20:42:53.662Z,51.53
2018-05-13T20:45:19.664Z,51.87
2018-05-13T20:47:45.608Z,51.50
2018-05-13T20:50:11.550Z,52.05
2018-05-13T20:52:37.553Z,51.88
2018-05-13T20:55:03.532Z,52.93
2018-05-13T20:57:29.477Z,52.14
2018-05-13T20:59:55.451Z,51.99
2018-05-13T21:02:22.345Z,52.43
2018-05-13T21:04:48.289Z,52.14
2018-05-13T21:07:14.283Z,51.33
2018-05-13T21:09:40.241Z,51.29
2018-05-13T21:12:06.179Z,52.47
2018-05-13T21:14:32.105Z,51.41
2018-05-13T21:16:58.049Z,52.18
2018-05-13T21:19:23.987Z,51.44
2018-05-13T21:21:49.910Z,51.63
2018-05-13T21:24:15.843Z,52.41
2018-05-13T21:26:41.758Z,52.16
2018-05-13T21:29:07.732Z,52.29
2018-05-13T21:31:33.657Z,52.86
2018-05-13T21:33:59.609Z,52.89
2018-05-13T21:36:25.573Z,52.46
2018-05-13T21:38:51.489Z,52.50
2018-05-13T21:41:17.469Z,52.50
2018-05-13T21:43:43.390Z,53.14
2018-05-13T21:46:09.312Z,52.59
2018-05-13T21:48:35.228Z,53.87
2018-05-13T21:51:01.195Z,53.28
2018-05-13T21:53:27.097Z,53.02
2018-05-13T21:55:53.012Z,53.44
2018-05-13T21:58:18.951Z,53.44
2018-05-13T22:00:44.894Z,54.13
2018-05-13T22:03:10.838Z,54.36
2018-05-13T22:05:36.755Z,53.89
2018-05-13T22:08:02.712Z,53.92
2018-05-13T22:10:28.621Z,54.57
2018-05-13T22:12:54.614Z,54.00
2018-05-13T22:15:20.528Z,54.31
2018-05-13T22:17:46.447Z,54.58
2018-05-13T22:20:12.413Z,54.86
2018-05-13T22:22:38.367Z,54.84
2018-05-13T22:25:04.306Z,54.24
2018-05-13T22:27:30.234Z,54.79
2018-05-13T22:29:56.174Z,54.69
2018-05-13T22:32:22.096Z,54.88
2018-05-13T22:34:48.052Z,54.68
2018-05-13T22:37:13.978Z,54.73
2018-05-13T22:39:39.948Z,55.63
2018-05-13T22:42:05.858Z,54.97
2018-05-13T22:44:31.789Z,54.96
2018-05-13T22:46:57.708Z,55.16
2018-05-13T22:49:23.628Z,55.24
2018-05-13T22:51:49.563Z,55.24
2018-05-13T22:54:15.489Z,55.66
2018-05-13T22:56:41.427Z,55.96
2018-05-13T22:59:07.353Z,55.55
2018-05-13T23:01:33.291Z,55.78
2018-05-13T23:03:59.215Z,56.21
2018-05-13T23:06:25.213Z,56.06
2018-05-13T23:08:51.137Z,56.59
2018-05-13T23:11:17.062Z,56.66
2018-05-13T23:13:42.993Z,56.85
2018-05-13T23:16:08.909Z,56.88
2018-05-13T23:21:27.698Z,57.80
2018-05-13T23:23:53.634Z,57.65
2018-05-13T23:26:19.540Z,58.43
2018-05-13T23:28:45.473Z,58.05
2018-05-13T23:31:11.392Z,58.04
2018-05-13T23:33:37.307Z,58.37
2018-05-13T23:36:03.232Z,58.08
2018-05-13T23:38:29.163Z,58.13
2018-05-13T23:40:55.098Z,58.13
2018-05-13T23:43:21.034Z,58.57
2018-05-13T23:45:46.967Z,58.14
2018-05-13T23:48:12.898Z,58.14
2018-05-13T23:50:38.838Z,57.87
2018-05-13T23:53:04.756Z,58.24
2018-05-13T23:55:30.672Z,58.11
2018-05-13T23:57:56.568Z,58.12
